MFDO2: Hudson Lake

Data processed at Mon Oct 26 2020 23:55


All information presented herein is the property of the government of the United States of America and may be revised or deleted at any time without prior notice.
Dissemination of this information without the expressed written consent of the Public Affairs Office, Tulsa District U.S. Army Corps of Engineers is strictly prohibited.
These data are gathered electronically and, as presented, have not undergone any form of quality control. These data are not guaranteed to be valid or correct.
Go to home page.
Go to station list.
Go to home page.

Upstream stations:

Downstream station:
Previous Day
Next Day
Current Day
    
SHEF ID:       MFDO2     Lake Hudson
STATION TYPE:  RESERVOIR
Flood Pool:  Bottom =   619.00, Top =   636.00

               PRECIP ELEVATION   STORAGE   TW-ELEV    INFLOW   RELEASE  AIR-TEMP  WIND-DIRWIND-SPEED REL-HUMID SOLAR-RAD   VOLTAGE  BAT-LOAD
                   in        ft     ac-ft        ft       cfs       cfs         F       deg       mph         %      W/m2      volt      volt
              Ccp-Rev   Ccp-Rev   Ccp-Rev   Ccp-Rev  Rev-Regi  Rev-Regi   Ccp-Rev   Ccp-Rev   Ccp-Rev   Ccp-Rev   Ccp-Rev   Ccp-Rev   Ccp-Rev
(US/Central)
10/26 00:00      0.00    619.68    207745    559.42       476         0     47.19    347.60      7.20     81.62      0.00     13.01     12.57
10/26 01:00      0.00    619.59    206745    559.39        60         0     46.02    349.20      7.20     85.41      0.00     13.00     12.65
10/26 02:00      0.00    619.65    207411    559.36         0         0     45.30    358.60      7.80     90.66      0.00     13.01     12.65
10/26 03:00      0.00    619.64    207300    559.34         0         0     44.71    356.80      7.70     92.97      0.00     13.00     12.57
10/26 04:00      0.00    619.57    206523    559.31        16         0     44.26    355.80      7.90     93.15      0.00     13.00     12.65
10/26 05:00      0.00    619.55    206300    559.30        32         0     43.72      3.30      9.40     94.54      0.00     13.00     12.65
10/26 06:00      0.00    619.56    206412    559.28        32         0     43.21    351.80      7.90     93.38      0.00     13.00     12.65
10/26 07:00      0.16    619.60    206856    559.27        32         0     41.74    346.60      9.70     96.98      0.00     13.01     12.65
10/26 08:00      0.13    619.55    206300    559.26       973         0     41.52    352.20      6.90     98.47      0.00     13.01     12.57
10/26 09:00      0.01    619.55    206300    559.25      1469         0     41.54    350.00      7.30     99.24      0.00     13.01     12.57
10/26 10:00      0.22    619.63    207189    559.25      1588         0     40.95    357.70      8.50     98.36      0.00     13.01     12.57
10/26 11:00      0.25    619.67    207634    559.25      1802         0     40.32    349.50      7.30     99.89      1.10     13.01     12.65
10/26 12:00      0.13    619.68    207745    559.24      3617         0     40.30     12.00      8.70     98.55     10.80     13.01     12.57
10/26 13:00      0.19    619.69    207856    559.25      2676         0     39.16    339.10      7.40     99.30     15.90     13.00     12.57
10/26 14:00      0.23    619.76    208634    559.22      2165         0     38.43    359.50      9.90     98.93     14.40     13.01     12.57
10/26 15:00      0.10    619.75    208522    559.25      2299         0     37.92    359.20      9.20     97.86     32.10     13.02     12.65
10/26 16:00      0.12    619.76    208634    559.25      4773         0     37.83      3.70     10.40     97.71     13.40     13.01     12.65
10/26 17:00      0.07    619.77    208745    559.24      2957         0     37.58      2.70     10.10     98.29     16.50     13.02     12.65
10/26 18:00      0.09    619.87    209856    559.24      5108         0     37.24    359.60      9.50     98.00      1.10     13.01     12.65
10/26 19:00      0.02    619.87    209856    559.21      8107         0     36.72      1.40      9.30     98.06      0.00     13.02     12.65
10/26 20:00      0.02    619.95    210744    559.21     10594         0     36.50    359.30      8.30     98.71      0.00     13.02     12.65
10/26 21:00      0.05    620.06    211983    559.20     10904         0     36.34    358.20      8.20     99.35      0.00     13.02     12.57
10/26 22:00      0.16    620.16    213122    559.20     13418         0     36.23    358.70      8.90     98.77      0.00     13.03     12.65
10/26 23:00      0.06    620.19    213464    559.19      ----      ----     36.12      1.30      8.70     99.04      0.00     13.03     12.65